Flight Track Log - Related Links

Times and Time Zones

All times are in EDT time to prevent confusion due to time zone crossing. See the PDT4314 flight status page for this flight to view local times or setup timezone preferences in your user account.

Time Position Orientation Groundspeed Altitude Reporting Facility
EDT Latitude Longitude Course Direction KTS MPH feet Rate Location/Type
Sun 07:13:00 PM 41.8303 -75.8563 153° Southeast  Level Estimated
Sun 07:14:00 PM 41.7763 -75.8388 161° South  Level Estimated
Sun 07:15:00 PM 41.7221 -75.8222 167° South  Level FlightAware Approximate
Sun 07:16:00 PM 41.6679 -75.8055 167° South  Level FlightAware Approximate
Sun 07:17:00 PM 41.6139 -75.7881 162° South  Level Estimated
Sun 07:18:00 PM 41.5603 -75.7686 165° South  Level FlightAware Approximate
Sun 07:19:00 PM 41.5066 -75.7491 165° South  Level FlightAware Approximate
Sun 07:20:00 PM 41.4530 -75.7296 165° South  Level FlightAware Approximate
Sun 07:21:00 PM 41.3993 -75.7102 165° South  Level FlightAware Approximate
Sun 07:22:00 PM 41.3452 -75.6932 159° South  Level Estimated
Sun 07:23:00 PM 41.2911 -75.6762 163° South  Level Estimated
Sun 07:24:00 PM 41.2379 -75.6551 163° South  Level FlightAware Approximate
Sun 07:25:00 PM 41.1846 -75.6340 163° South  Level FlightAware Approximate
Sun 07:26:00 PM 41.1314 -75.6129 163° South  Level FlightAware Approximate
Sun 07:27:00 PM 41.0781 -75.5919 163° South  Level FlightAware Approximate
Sun 07:28:00 PM 41.0238 -75.5758 190° South  Level Estimated
Sun 07:29:00 PM 40.9686 -75.5677 174° South  Level FlightAware Approximate
Sun 07:30:00 PM 40.9133 -75.5597 174° South  Level FlightAware Approximate
Sun 07:31:00 PM 40.8581 -75.5517 174° South  Level FlightAware Approximate
Sun 07:31:33 PM 40.6333 -75.5833 180° South 254 292 7,000  Level Philadelphia TRACON
Sun 07:32:00 PM 40.8041 -75.5344 187° South  Level Estimated
Sun 07:32:58 PM 40.5333 -75.5500 166° South 261 300 7,000  Level Philadelphia TRACON
Sun 07:33:00 PM 40.7485 -75.5319 178° South  Level FlightAware Approximate
Sun 07:33:57 PM 40.4667 -75.5500 180° South 266 306 6,100  Level Philadelphia TRACON
Sun 07:34:00 PM 40.6947 -75.5138 190° South  Level Estimated
Sun 07:34:58 PM 40.4000 -75.5500 180° South 267 307 5,300  Level Philadelphia TRACON
Sun 07:35:00 PM 40.6392 -75.5184 184° South  Level FlightAware Approximate
Sun 07:35:58 PM 40.3333 -75.5000 150° Southeast 263 303 4,700  Level Philadelphia TRACON
Sun 07:36:00 PM 40.5683 -75.4924 180° South  Level Estimated
Sun 07:37:04 PM 40.2667 -75.4333 143° Southeast 264 304 4,000  Level Philadelphia TRACON
Sun 07:38:04 PM 40.2000 -75.3833 150° Southeast 240 276 4,000  Level Philadelphia TRACON
Sun 07:39:10 PM 40.1333 -75.3333 150° Southeast 241 277 4,000  Level Philadelphia TRACON
Sun 07:40:10 PM 40.0833 -75.3000 153° Southeast 241 277 4,000  Level Philadelphia TRACON
Sun 07:41:04 PM 40.0333 -75.2500 143° Southeast 242 278 4,000  Level Philadelphia TRACON
Sun 07:42:04 PM 39.9667 -75.2167 159° South 238 274 4,000  Level Philadelphia TRACON
Sun 07:42:58 PM 39.9333 -75.1667 131° Southeast 210 242 4,000  Level Philadelphia TRACON
Sun 07:43:58 PM 39.8833 -75.1333 153° Southeast 216 249 4,000 -750 Level Philadelphia TRACON
Sun 07:44:58 PM 39.8333 -75.1000 153° Southeast 206 237 2,500 -1,263 Descending Philadelphia TRACON
Sun 07:45:52 PM 39.8000 -75.1500 229° Southwest 162 186 1,600 -571 Descending Philadelphia TRACON
Sun 07:47:04 PM 39.8000 -75.2000 270° West 130 150 1,300 -261 Descending Philadelphia TRACON
Sun 07:47:47 PM 39.8333 -75.2167 339° North 118 136 1,100 -279 Descending Philadelphia TRACON
Sun 07:49:00 PM 39.8667 -75.2333 316° Northwest  Level FlightAware Approximate
Sun 07:56:00 PM 39.8722 -75.2409 316° Northwest  Level Estimated

Login

Don't have an account? Register now (free) for customized features, flight alerts, and more!